Time;durP1;ratioP1;P1;durP2;ratioP2;P2;SDS_P1;SDS_P2;PMS_P1;PMS_P2;Temp;Humidity;BMP_temperature;BMP_pressure;BME280_temperature;BME280_humidity;BME280_pressure;Samples;Min_cycle;Max_cycle;Signal;HPM_P1;HPM_P2
2022/12/19 00:01:57;;;;;;;19.53;9.60;;;10.70;44.30;;;;;;5037332;28;20452;-85
2022/12/19 00:04:24;;;;;;;18.10;9.90;;;10.70;44.30;;;;;;5036302;28;20436;-83
2022/12/19 00:06:53;;;;;;;14.63;9.10;;;10.70;44.40;;;;;;5035097;28;20454;-86
2022/12/19 00:09:20;;;;;;;17.97;9.60;;;10.70;44.40;;;;;;5033822;28;20468;-84
2022/12/19 00:11:49;;;;;;;16.73;9.43;;;10.70;44.30;;;;;;5033669;28;20460;-86
2022/12/19 00:14:18;;;;;;;14.67;9.23;;;10.70;44.30;;;;;;5030104;28;20490;-83
2022/12/19 00:16:45;;;;;;;21.30;10.50;;;10.80;44.30;;;;;;5035489;28;20539;-84
2022/12/19 00:19:14;;;;;;;16.00;9.93;;;10.70;44.20;;;;;;5036411;28;20539;-84
2022/12/19 00:21:42;;;;;;;16.30;10.20;;;10.70;44.30;;;;;;5043578;28;20442;-85
2022/12/19 00:24:10;;;;;;;18.27;10.47;;;10.70;44.30;;;;;;5040541;28;20456;-84
2022/12/19 00:26:48;;;;;;;17.20;9.77;;;10.70;44.40;;;;;;5032361;28;20461;-84
2022/12/19 00:29:16;;;;;;;17.20;9.90;;;10.70;44.40;;;;;;5039366;28;20479;-84
2022/12/19 00:31:45;;;;;;;21.77;11.33;;;10.70;44.40;;;;;;5038901;28;20455;-86
2022/12/19 00:34:12;;;;;;;16.03;10.17;;;10.70;44.50;;;;;;5039981;28;20471;-85
2022/12/19 00:36:41;;;;;;;20.10;10.70;;;10.70;44.50;;;;;;5032881;28;20452;-84
2022/12/19 00:39:09;;;;;;;18.23;10.60;;;10.70;44.60;;;;;;5036067;28;20478;-84
2022/12/19 00:41:38;;;;;;;18.43;10.20;;;10.70;44.60;;;;;;5037661;28;20447;-85
2022/12/19 00:44:10;;;;;;;16.17;10.30;;;10.70;44.70;;;;;;5037606;28;20494;-84
2022/12/19 00:46:38;;;;;;;17.63;10.13;;;10.70;44.60;;;;;;5037671;28;20479;-83
2022/12/19 00:49:07;;;;;;;17.83;10.30;;;10.70;44.70;;;;;;5041513;28;20490;-84
2022/12/19 00:51:36;;;;;;;17.00;9.83;;;10.70;44.70;;;;;;5038229;28;20456;-85
2022/12/19 00:54:04;;;;;;;21.73;10.77;;;10.70;44.80;;;;;;5039594;28;20468;-84
2022/12/19 00:56:35;;;;;;;18.57;10.50;;;10.70;44.80;;;;;;5034762;28;20453;-84
2022/12/19 00:59:04;;;;;;;19.63;10.40;;;10.70;44.80;;;;;;5019485;28;20471;-85
2022/12/19 01:01:33;;;;;;;18.10;10.70;;;10.70;45.40;;;;;;5035989;28;20464;-84
2022/12/19 01:04:01;;;;;;;20.20;11.87;;;10.70;44.80;;;;;;5037615;28;20447;-85
2022/12/19 01:06:51;;;;;;;19.30;11.13;;;10.70;44.90;;;;;;5031893;28;20448;-83
2022/12/19 01:09:20;;;;;;;26.03;11.07;;;10.70;44.90;;;;;;5037644;28;20470;-83
2022/12/19 01:14:33;;;;;;;20.03;11.30;;;10.70;44.90;;;;;;5030499;28;20464;-84
2022/12/19 01:17:02;;;;;;;18.20;10.30;;;10.70;45.00;;;;;;5039046;28;20942;-87
2022/12/19 01:19:30;;;;;;;20.33;10.83;;;10.60;45.00;;;;;;5036813;28;20499;-84
2022/12/19 01:21:59;;;;;;;22.97;12.43;;;10.70;45.10;;;;;;5037488;28;20451;-84
2022/12/19 01:24:29;;;;;;;19.30;11.10;;;10.70;45.10;;;;;;5036051;28;20467;-84
2022/12/19 01:26:57;;;;;;;19.40;11.17;;;10.70;45.10;;;;;;5038092;28;20451;-84
2022/12/19 01:29:26;;;;;;;19.90;10.60;;;10.70;45.10;;;;;;5032841;28;20479;-84
2022/12/19 01:31:54;;;;;;;20.43;11.27;;;10.60;45.20;;;;;;5036343;28;20452;-84
2022/12/19 01:34:23;;;;;;;21.83;11.97;;;10.70;45.20;;;;;;5033436;28;20498;-85
2022/12/19 01:36:51;;;;;;;20.57;11.03;;;10.60;45.20;;;;;;5035450;28;20459;-83
2022/12/19 01:39:20;;;;;;;19.87;10.90;;;10.70;45.30;;;;;;5033600;28;20475;-83
2022/12/19 01:41:51;;;;;;;22.77;11.90;;;10.70;45.20;;;;;;5036422;28;20502;-82
2022/12/19 01:44:19;;;;;;;22.47;11.20;;;10.70;45.40;;;;;;5037447;28;20455;-83
2022/12/19 01:46:48;;;;;;;20.60;10.93;;;10.70;45.40;;;;;;5037650;28;20455;-80
2022/12/19 01:49:17;;;;;;;21.97;11.90;;;10.70;45.30;;;;;;5039266;28;20470;-82
2022/12/19 01:51:52;;;;;;;18.93;11.83;;;10.70;45.40;;;;;;5040736;28;20577;-82
2022/12/19 01:54:23;;;;;;;18.70;10.77;;;10.70;45.40;;;;;;5040526;28;20475;-81
2022/12/19 01:56:53;;;;;;;20.23;11.80;;;10.70;45.50;;;;;;5039530;28;20459;-83
2022/12/19 01:59:24;;;;;;;24.33;13.30;;;10.70;45.50;;;;;;5039029;28;20471;-82
2022/12/19 02:01:52;;;;;;;23.30;11.90;;;10.70;45.60;;;;;;5032064;28;20447;-82
2022/12/19 02:04:20;;;;;;;22.10;12.17;;;10.70;45.50;;;;;;5038784;28;20518;-83
2022/12/19 02:06:48;;;;;;;19.77;11.30;;;10.70;45.60;;;;;;5041011;28;20462;-83
2022/12/19 02:09:16;;;;;;;21.30;12.27;;;10.70;45.60;;;;;;5038324;28;20509;-83
2022/12/19 02:11:48;;;;;;;19.40;10.83;;;10.70;45.60;;;;;;5035410;28;20462;-81
2022/12/19 02:14:16;;;;;;;22.37;11.00;;;10.70;45.60;;;;;;5038874;28;20447;-82
2022/12/19 02:16:47;;;;;;;20.50;12.20;;;10.70;45.80;;;;;;5038098;28;20458;-82
2022/12/19 02:19:40;;;;;;;20.17;11.63;;;10.70;45.70;;;;;;5034556;28;20514;-81
2022/12/19 02:22:09;;;;;;;24.00;12.20;;;10.70;45.80;;;;;;5038919;28;20453;-83
2022/12/19 02:25:09;;;;;;;22.27;12.23;;;10.70;45.80;;;;;;5032894;28;20447;-83
2022/12/19 02:28:01;;;;;;;20.23;11.63;;;10.70;45.80;;;;;;5039750;28;20478;-83
2022/12/19 02:30:41;;;;;;;20.10;11.53;;;10.60;45.80;;;;;;5037815;28;20443;-83
2022/12/19 02:33:12;;;;;;;21.90;12.30;;;10.60;46.00;;;;;;5038258;28;20451;-82
2022/12/19 02:35:41;;;;;;;19.70;11.33;;;10.60;46.00;;;;;;5037222;28;20485;-84
2022/12/19 02:38:11;;;;;;;22.03;12.70;;;10.70;46.00;;;;;;5038100;28;20554;-83
2022/12/19 02:40:41;;;;;;;21.97;12.27;;;10.70;45.90;;;;;;5037551;28;20535;-84
2022/12/19 02:43:09;;;;;;;22.23;11.90;;;10.70;46.00;;;;;;5037773;28;20459;-83
2022/12/19 02:45:38;;;;;;;22.67;12.93;;;10.70;46.10;;;;;;5034143;28;20443;-82
2022/12/19 02:48:06;;;;;;;22.80;12.57;;;10.70;46.00;;;;;;5037747;28;20525;-82
2022/12/19 02:50:37;;;;;;;19.90;11.07;;;10.70;46.00;;;;;;5036585;28;20529;-83
2022/12/19 02:53:05;;;;;;;20.90;12.07;;;10.70;46.10;;;;;;5036963;28;20459;-83
2022/12/19 02:55:36;;;;;;;22.03;12.53;;;10.70;46.10;;;;;;5035321;28;20483;-83
2022/12/19 02:58:43;;;;;;;21.87;11.80;;;10.70;46.20;;;;;;5038083;28;20460;-83
2022/12/19 03:01:20;;;;;;;22.10;12.03;;;10.70;46.10;;;;;;5037166;28;20454;-83
2022/12/19 03:03:55;;;;;;;24.33;12.40;;;10.70;46.20;;;;;;5018038;28;20432;-83
2022/12/19 03:06:25;;;;;;;23.47;12.13;;;10.80;46.30;;;;;;5029703;28;20451;-83
2022/12/19 03:08:55;;;;;;;22.97;12.77;;;10.70;46.20;;;;;;5035842;28;20467;-83
2022/12/19 03:11:23;;;;;;;21.17;11.70;;;10.70;46.20;;;;;;5036159;28;20451;-82
2022/12/19 03:13:53;;;;;;;24.20;12.50;;;10.70;46.30;;;;;;5036538;28;20459;-83
2022/12/19 03:16:23;;;;;;;24.37;12.20;;;10.80;47.00;;;;;;5027584;28;20479;-82
2022/12/19 03:18:53;;;;;;;22.60;12.57;;;10.70;46.30;;;;;;5034773;28;20524;-84
2022/12/19 03:21:23;;;;;;;21.23;11.97;;;10.70;46.40;;;;;;5035729;28;20460;-82
2022/12/19 03:23:53;;;;;;;21.07;11.83;;;10.80;46.50;;;;;;5038580;28;20998;-83
2022/12/19 03:26:22;;;;;;;20.07;11.40;;;10.80;46.40;;;;;;5035282;28;20511;-83
2022/12/19 03:28:52;;;;;;;22.53;12.10;;;10.80;46.50;;;;;;5045095;28;20542;-82
2022/12/19 03:31:23;;;;;;;22.70;12.40;;;10.80;46.60;;;;;;5033486;28;20479;-83
2022/12/19 03:33:54;;;;;;;19.67;10.60;;;10.80;46.60;;;;;;5041680;28;20526;-83
2022/12/19 03:36:24;;;;;;;22.47;12.27;;;10.80;46.50;;;;;;5041214;28;20546;-82
2022/12/19 03:38:53;;;;;;;22.40;12.10;;;10.80;46.60;;;;;;5041171;28;20601;-83
2022/12/19 03:43:07;;;;;;;21.57;11.87;;;10.90;46.60;;;;;;5040256;28;20538;-83
2022/12/19 03:44:08;;;;;;;20.60;11.80;;;10.80;46.70;;;;;;5039329;28;20466;-83
2022/12/19 03:46:39;;;;;;;20.00;10.93;;;10.90;46.70;;;;;;5040094;28;20455;-83
2022/12/19 03:49:08;;;;;;;19.93;11.80;;;10.90;46.60;;;;;;5041315;28;20463;-82
2022/12/19 03:51:40;;;;;;;18.27;10.70;;;10.90;46.80;;;;;;5038609;28;20455;-82
2022/12/19 03:54:09;;;;;;;20.20;11.43;;;10.90;46.80;;;;;;5039797;28;20483;-83
2022/12/19 03:56:41;;;;;;;23.90;12.90;;;10.90;46.80;;;;;;5040164;28;20502;-80
2022/12/19 03:59:10;;;;;;;20.10;11.30;;;10.90;46.70;;;;;;5038312;28;20486;-81
2022/12/19 04:01:40;;;;;;;18.73;11.37;;;10.90;46.70;;;;;;5037689;28;20452;-83
2022/12/19 04:04:11;;;;;;;19.90;11.60;;;10.90;47.40;;;;;;5036988;28;20581;-82
2022/12/19 04:06:39;;;;;;;20.87;11.63;;;10.90;46.80;;;;;;5035671;28;20448;-81
2022/12/19 04:09:07;;;;;;;20.10;11.03;;;10.90;47.00;;;;;;5034696;28;20483;-82
2022/12/19 04:11:37;;;;;;;20.80;11.40;;;10.90;47.00;;;;;;5035875;28;20459;-82
2022/12/19 04:14:07;;;;;;;17.60;10.47;;;10.90;47.00;;;;;;5036668;28;20452;-82
2022/12/19 04:16:40;;;;;;;21.77;12.00;;;11.00;47.10;;;;;;5032432;28;20469;-80
2022/12/19 04:19:10;;;;;;;19.93;11.27;;;11.00;47.00;;;;;;5034303;28;20481;-83
2022/12/19 04:21:42;;;;;;;19.60;11.47;;;11.00;46.90;;;;;;5034308;28;20447;-82
2022/12/19 04:24:12;;;;;;;21.57;11.77;;;11.00;47.00;;;;;;5031831;28;20451;-82
2022/12/19 04:26:42;;;;;;;21.77;12.00;;;11.00;47.10;;;;;;5034360;28;20452;-83
2022/12/19 04:29:10;;;;;;;20.03;10.80;;;11.00;47.10;;;;;;5036458;28;20487;-82
2022/12/19 04:31:40;;;;;;;21.07;11.40;;;11.00;47.20;;;;;;5036128;28;20520;-82
2022/12/19 04:34:07;;;;;;;20.23;11.70;;;11.00;47.30;;;;;;5030210;28;20456;-83
2022/12/19 04:36:35;;;;;;;19.53;11.30;;;11.00;47.30;;;;;;5034930;28;20478;-83
2022/12/19 04:39:03;;;;;;;19.17;10.40;;;11.00;47.30;;;;;;5035170;28;20895;-81
2022/12/19 04:41:32;;;;;;;20.77;11.00;;;11.00;47.30;;;;;;5036661;28;20462;-82
2022/12/19 04:44:00;;;;;;;22.53;11.23;;;11.00;47.40;;;;;;5037243;28;20455;-83
2022/12/19 04:46:28;;;;;;;17.83;10.43;;;11.00;47.40;;;;;;5035093;28;20482;-83
2022/12/19 04:48:58;;;;;;;21.07;11.67;;;11.00;47.40;;;;;;5036474;28;20545;-81
2022/12/19 04:51:26;;;;;;;19.30;10.50;;;11.00;47.40;;;;;;5035228;28;20463;-81
2022/12/19 04:53:54;;;;;;;20.83;11.30;;;11.00;47.40;;;;;;5034928;28;20459;-82
2022/12/19 04:56:22;;;;;;;20.13;11.03;;;11.00;47.50;;;;;;5035939;28;20470;-84
2022/12/19 04:58:50;;;;;;;19.90;11.30;;;11.00;47.60;;;;;;5037600;28;20471;-85
2022/12/19 05:01:18;;;;;;;19.90;10.37;;;11.00;47.50;;;;;;5036987;28;20819;-83
2022/12/19 05:03:46;;;;;;;20.97;11.83;;;11.10;47.60;;;;;;5036996;28;20806;-83
2022/12/19 05:06:22;;;;;;;19.33;11.43;;;11.00;47.60;;;;;;5035352;28;20519;-82
2022/12/19 05:08:51;;;;;;;22.83;11.73;;;11.10;47.70;;;;;;5035759;28;20475;-83
2022/12/19 05:11:18;;;;;;;18.30;10.43;;;11.10;47.60;;;;;;5035748;28;20454;-85
2022/12/19 05:13:48;;;;;;;19.03;11.10;;;11.10;47.70;;;;;;5035856;28;20452;-83
2022/12/19 05:16:16;;;;;;;21.23;11.70;;;11.10;47.70;;;;;;5035274;28;20533;-82
2022/12/19 05:18:44;;;;;;;22.23;11.07;;;11.10;47.80;;;;;;5035823;28;20475;-83
2022/12/19 05:21:12;;;;;;;19.90;11.13;;;11.10;47.90;;;;;;5035836;28;20458;-84
2022/12/19 05:23:41;;;;;;;19.67;10.83;;;11.10;47.90;;;;;;5034766;28;20819;-84
2022/12/19 05:26:10;;;;;;;26.70;10.60;;;11.10;47.90;;;;;;5033696;28;20467;-83
2022/12/19 05:28:38;;;;;;;19.33;11.40;;;11.10;47.80;;;;;;5032985;28;20490;-83
2022/12/19 05:31:07;;;;;;;20.20;10.93;;;11.10;48.00;;;;;;5031406;28;20543;-81
2022/12/19 05:33:36;;;;;;;23.43;11.33;;;11.10;47.90;;;;;;5032198;28;20457;-82
2022/12/19 05:36:04;;;;;;;21.67;10.90;;;11.10;47.90;;;;;;5031910;28;20458;-81
2022/12/19 05:38:33;;;;;;;18.07;10.80;;;11.10;48.00;;;;;;5030042;28;20540;-82
2022/12/19 05:41:06;;;;;;;19.93;11.03;;;11.20;48.10;;;;;;5031132;28;20451;-82
2022/12/19 05:43:34;;;;;;;20.40;11.40;;;11.10;48.00;;;;;;5032156;28;20451;-82
2022/12/19 05:46:03;;;;;;;18.17;10.23;;;11.20;48.20;;;;;;5030930;28;20488;-82
2022/12/19 05:48:31;;;;;;;19.30;11.00;;;11.20;48.20;;;;;;5032442;28;20516;-82
2022/12/19 05:50:59;;;;;;;21.97;11.10;;;11.20;48.10;;;;;;5032064;28;20582;-82
2022/12/19 05:53:27;;;;;;;21.37;11.83;;;11.20;48.20;;;;;;5027318;28;20453;-82
2022/12/19 05:56:04;;;;;;;20.13;11.43;;;11.20;48.30;;;;;;5032943;28;20534;-81
2022/12/19 05:58:32;;;;;;;18.03;10.60;;;11.20;48.40;;;;;;5032338;28;20474;-81
2022/12/19 06:01:03;;;;;;;19.20;11.03;;;11.20;48.30;;;;;;5033404;28;20451;-82
2022/12/19 06:03:31;;;;;;;16.53;10.03;;;11.20;48.40;;;;;;5033051;28;20459;-81
2022/12/19 06:06:02;;;;;;;20.90;11.30;;;11.10;48.30;;;;;;5031137;28;20454;-81
2022/12/19 06:08:30;;;;;;;18.87;10.50;;;11.20;48.40;;;;;;5032977;28;20463;-82
2022/12/19 06:10:59;;;;;;;18.60;10.90;;;11.20;48.40;;;;;;5032548;28;20460;-81
2022/12/19 06:13:28;;;;;;;21.50;11.40;;;11.20;48.40;;;;;;5026511;28;20531;-81
2022/12/19 06:15:59;;;;;;;20.37;11.10;;;11.20;48.40;;;;;;5031684;28;20452;-83
2022/12/19 06:18:27;;;;;;;22.43;11.40;;;11.20;48.50;;;;;;5028144;28;20483;-81
2022/12/19 06:20:57;;;;;;;20.80;10.73;;;11.20;48.50;;;;;;5030777;28;20447;-82
2022/12/19 06:23:25;;;;;;;19.13;10.53;;;11.20;49.10;;;;;;5035062;28;20455;-80
2022/12/19 06:25:55;;;;;;;21.03;11.47;;;11.30;48.60;;;;;;5031869;28;20467;-79
2022/12/19 06:28:23;;;;;;;22.83;11.40;;;11.20;48.50;;;;;;5032519;28;20478;-81
2022/12/19 06:30:52;;;;;;;18.40;10.13;;;11.30;48.70;;;;;;5035664;28;20462;-81
2022/12/19 06:33:21;;;;;;;18.37;10.63;;;11.30;48.60;;;;;;5034190;28;20455;-80
2022/12/19 06:35:49;;;;;;;18.50;10.13;;;11.30;48.70;;;;;;5033450;28;20462;-84
2022/12/19 06:38:17;;;;;;;18.20;11.00;;;11.30;48.60;;;;;;5046379;28;20479;-82
2022/12/19 06:43:31;;;;;;;17.70;10.40;;;11.30;48.70;;;;;;5041378;28;20462;-81
2022/12/19 06:46:00;;;;;;;21.60;12.07;;;11.30;48.80;;;;;;5035512;28;20486;-81
2022/12/19 06:48:28;;;;;;;20.50;10.87;;;11.30;48.90;;;;;;5041280;28;20498;-82
2022/12/19 06:50:55;;;;;;;18.90;10.80;;;11.30;48.80;;;;;;5043397;28;20477;-82
2022/12/19 06:53:24;;;;;;;22.47;11.90;;;11.30;48.80;;;;;;5043621;28;20470;-82
2022/12/19 06:55:53;;;;;;;19.90;10.93;;;11.30;48.90;;;;;;5040375;28;20456;-81
2022/12/19 06:58:21;;;;;;;20.67;10.93;;;11.30;48.90;;;;;;5034994;28;20479;-81
2022/12/19 07:00:51;;;;;;;19.20;10.80;;;11.40;48.90;;;;;;5036619;28;20474;-81
2022/12/19 07:03:22;;;;;;;19.13;10.60;;;11.30;48.90;;;;;;5032064;28;20471;-82
2022/12/19 07:05:50;;;;;;;18.30;10.80;;;11.30;49.00;;;;;;5032852;28;20462;-81
2022/12/19 07:08:18;;;;;;;21.37;11.43;;;11.40;49.20;;;;;;5024178;28;20464;-82
2022/12/19 07:10:45;;;;;;;18.23;11.10;;;11.40;49.20;;;;;;5025801;28;20459;-81
2022/12/19 07:13:14;;;;;;;21.43;11.50;;;11.40;49.30;;;;;;5033403;28;20513;-81
2022/12/19 07:15:42;;;;;;;18.67;10.73;;;11.40;49.20;;;;;;5035998;28;20447;-81
2022/12/19 07:18:10;;;;;;;19.13;10.60;;;11.40;49.20;;;;;;5036476;28;20471;-81
2022/12/19 07:20:41;;;;;;;20.27;11.30;;;11.40;49.40;;;;;;5030788;28;20464;-81
2022/12/19 07:23:16;;;;;;;20.93;10.97;;;11.40;49.30;;;;;;5035494;28;20546;-81
2022/12/19 07:25:44;;;;;;;21.70;11.23;;;11.40;49.30;;;;;;5028619;28;20452;-80
2022/12/19 07:28:12;;;;;;;20.40;11.07;;;11.40;49.40;;;;;;5034501;28;20471;-81
2022/12/19 07:30:40;;;;;;;18.63;10.97;;;11.40;49.40;;;;;;5033865;28;20471;-81
2022/12/19 07:33:09;;;;;;;21.10;10.90;;;11.40;49.50;;;;;;5034910;28;20937;-81
2022/12/19 07:35:40;;;;;;;20.87;11.30;;;11.40;49.50;;;;;;5041940;28;20435;-85
2022/12/19 07:38:08;;;;;;;19.10;10.80;;;11.40;49.50;;;;;;5057828;28;20463;-87
2022/12/19 07:40:36;;;;;;;20.87;10.73;;;11.40;49.60;;;;;;5054372;28;20451;-84
2022/12/19 07:43:04;;;;;;;20.40;11.53;;;11.40;49.60;;;;;;5057263;28;20431;-85
2022/12/19 07:45:33;;;;;;;20.00;10.97;;;11.50;49.60;;;;;;5057746;28;20507;-84
2022/12/19 07:48:01;;;;;;;16.93;10.47;;;11.50;49.70;;;;;;5056856;28;20463;-80
2022/12/19 07:50:29;;;;;;;16.70;10.00;;;11.50;49.80;;;;;;5053988;28;20424;-82
2022/12/19 07:52:58;;;;;;;20.20;10.70;;;11.50;49.80;;;;;;5047006;28;20443;-82
2022/12/19 07:55:26;;;;;;;18.03;9.93;;;11.50;49.80;;;;;;5050309;28;20450;-84
2022/12/19 07:57:55;;;;;;;20.00;11.00;;;11.50;49.80;;;;;;5051095;28;20460;-83
2022/12/19 08:00:23;;;;;;;16.57;9.90;;;11.50;49.80;;;;;;5049436;28;20448;-80
2022/12/19 08:02:50;;;;;;;18.77;10.63;;;11.50;49.90;;;;;;5051597;28;20435;-83
2022/12/19 08:05:19;;;;;;;17.67;10.53;;;11.50;49.80;;;;;;5054194;28;20456;-81
2022/12/19 08:07:46;;;;;;;14.47;9.57;;;11.50;50.00;;;;;;5055075;28;20460;-82
2022/12/19 08:10:16;;;;;;;17.83;10.53;;;11.50;50.00;;;;;;5054926;28;20443;-81
2022/12/19 08:12:44;;;;;;;15.70;9.97;;;11.50;50.10;;;;;;5033346;28;20463;-81
2022/12/19 08:15:12;;;;;;;19.23;9.97;;;11.60;50.10;;;;;;5033020;28;20455;-82
2022/12/19 08:17:40;;;;;;;18.20;10.40;;;11.60;50.10;;;;;;5021360;28;20640;-79
2022/12/19 08:20:10;;;;;;;19.53;10.07;;;11.60;50.80;;;;;;5034977;28;20513;-81
2022/12/19 08:22:37;;;;;;;17.87;10.63;;;11.60;50.80;;;;;;5034099;28;20460;-83
2022/12/19 08:25:07;;;;;;;17.00;9.70;;;11.60;50.30;;;;;;5035584;28;20458;-82
2022/12/19 08:27:37;;;;;;;15.67;9.43;;;11.60;50.20;;;;;;5035925;28;20538;-81
2022/12/19 08:30:05;;;;;;;18.07;9.23;;;11.60;50.30;;;;;;5037224;28;20451;-80
2022/12/19 08:32:35;;;;;;;17.80;9.60;;;11.60;50.40;;;;;;5037536;28;20455;-82
2022/12/19 08:35:03;;;;;;;14.90;9.17;;;11.70;50.40;;;;;;5034843;28;20478;-83
2022/12/19 08:37:34;;;;;;;14.67;9.10;;;11.70;50.40;;;;;;5032206;28;20447;-80
2022/12/19 08:40:02;;;;;;;17.93;9.90;;;11.70;50.40;;;;;;5036505;28;20444;-82
2022/12/19 08:42:31;;;;;;;16.10;9.20;;;11.70;50.40;;;;;;5021135;28;20454;-80
2022/12/19 08:45:00;;;;;;;17.47;9.70;;;11.70;50.40;;;;;;5030561;28;20456;-82
2022/12/19 08:47:28;;;;;;;15.77;9.70;;;11.80;50.50;;;;;;5039382;28;20435;-83
2022/12/19 08:49:56;;;;;;;16.47;9.30;;;11.80;50.60;;;;;;5033821;28;20463;-82
2022/12/19 08:52:24;;;;;;;16.40;9.50;;;11.80;50.60;;;;;;5035022;28;20458;-80
2022/12/19 08:54:52;;;;;;;15.33;9.17;;;11.80;50.60;;;;;;5033838;28;20459;-81
2022/12/19 08:57:20;;;;;;;14.77;9.60;;;11.80;50.60;;;;;;5036361;28;20451;-82
2022/12/19 08:59:48;;;;;;;13.70;8.87;;;11.80;50.60;;;;;;5030371;28;20467;-82
2022/12/19 09:02:18;;;;;;;19.43;10.27;;;11.90;50.60;;;;;;5033431;28;20455;-81
2022/12/19 09:04:46;;;;;;;14.00;9.10;;;11.90;50.60;;;;;;5031215;28;20479;-81
2022/12/19 09:07:35;;;;;;;13.17;9.30;;;11.90;50.80;;;;;;5036126;28;20427;-81
2022/12/19 09:10:07;;;;;;;13.60;8.90;;;11.90;50.70;;;;;;5037051;28;20470;-81
2022/12/19 09:12:35;;;;;;;14.37;8.60;;;12.00;50.80;;;;;;5035338;28;20817;-82
2022/12/19 09:15:03;;;;;;;15.53;9.83;;;11.90;50.70;;;;;;5036116;28;20432;-82
2022/12/19 09:17:32;;;;;;;15.10;8.70;;;11.90;50.80;;;;;;5037060;28;20462;-81
2022/12/19 09:20:00;;;;;;;14.10;9.07;;;12.00;50.90;;;;;;5033055;28;20475;-81
2022/12/19 09:22:28;;;;;;;16.30;9.40;;;12.00;50.80;;;;;;5036198;28;20443;-83
2022/12/19 09:24:56;;;;;;;12.90;8.60;;;12.00;50.90;;;;;;5036120;28;20486;-82
2022/12/19 09:27:24;;;;;;;13.43;9.07;;;12.10;51.00;;;;;;5037449;28;20458;-84
2022/12/19 09:29:52;;;;;;;14.57;8.70;;;12.10;51.00;;;;;;5037644;28;20468;-83
2022/12/19 09:32:20;;;;;;;13.60;9.23;;;12.10;51.00;;;;;;5037854;28;20436;-81
2022/12/19 09:34:50;;;;;;;13.47;9.10;;;12.10;50.90;;;;;;5037784;28;20443;-82
2022/12/19 09:37:18;;;;;;;14.20;8.30;;;12.10;50.90;;;;;;5036628;28;20487;-82
2022/12/19 09:39:46;;;;;;;15.60;9.87;;;12.20;51.10;;;;;;5033640;28;20479;-82
2022/12/19 09:42:36;;;;;;;13.10;8.57;;;12.10;51.00;;;;;;5038319;28;20459;-82
2022/12/19 09:45:41;;;;;;;15.20;9.03;;;12.20;51.10;;;;;;5034871;28;20451;-81
2022/12/19 09:48:11;;;;;;;12.27;8.20;;;12.20;51.10;;;;;;5039069;28;20452;-81
2022/12/19 09:50:56;;;;;;;11.80;8.20;;;12.20;51.20;;;;;;5038655;28;20530;-82
2022/12/19 09:53:40;;;;;;;13.00;9.00;;;12.20;51.20;;;;;;5037935;28;20456;-83
2022/12/19 09:56:11;;;;;;;11.40;8.23;;;12.30;51.30;;;;;;5034794;28;20455;-80
2022/12/19 09:58:40;;;;;;;13.00;8.57;;;12.30;51.30;;;;;;5023241;28;20472;-80
2022/12/19 10:01:14;;;;;;;11.43;7.80;;;12.30;51.30;;;;;;5029073;28;21018;-81
2022/12/19 10:03:44;;;;;;;12.00;8.20;;;12.30;51.40;;;;;;5039132;28;20439;-81
2022/12/19 10:06:16;;;;;;;14.07;8.70;;;12.30;51.50;;;;;;5039533;28;20451;-80
2022/12/19 10:09:05;;;;;;;11.67;8.00;;;12.40;51.50;;;;;;5020546;28;20968;-80
2022/12/19 10:12:01;;;;;;;11.70;8.30;;;12.40;51.50;;;;;;5037931;28;20460;-81
2022/12/19 10:14:55;;;;;;;12.03;7.97;;;12.40;51.60;;;;;;5034607;28;20460;-78
2022/12/19 10:17:29;;;;;;;11.50;8.20;;;12.40;51.70;;;;;;5038545;28;20466;-82
2022/12/19 10:20:15;;;;;;;10.63;7.83;;;12.50;51.80;;;;;;5040143;28;20483;-84
2022/12/19 10:22:51;;;;;;;9.63;7.60;;;12.50;52.30;;;;;;5031257;28;20446;-85
2022/12/19 10:25:28;;;;;;;14.57;8.43;;;12.50;51.80;;;;;;5035465;28;20451;-82
2022/12/19 10:27:59;;;;;;;11.67;7.70;;;12.50;52.40;;;;;;5040240;28;20454;-83
2022/12/19 10:30:28;;;;;;;11.27;8.00;;;12.60;51.80;;;;;;5038389;28;20497;-85
2022/12/19 10:33:02;;;;;;;10.37;7.17;;;12.60;51.80;;;;;;5022855;28;20444;-84
2022/12/19 10:35:33;;;;;;;11.50;7.40;;;12.60;51.80;;;;;;5040795;28;20481;-83
2022/12/19 10:38:12;;;;;;;9.80;7.23;;;12.60;52.00;;;;;;5061274;28;20469;-81
2022/12/19 10:40:43;;;;;;;9.47;7.23;;;12.60;51.90;;;;;;5044994;28;20489;-85
2022/12/19 10:43:12;;;;;;;11.23;7.30;;;12.60;52.00;;;;;;5044056;28;20447;-85
2022/12/19 10:45:51;;;;;;;8.80;7.10;;;12.60;52.00;;;;;;5039688;28;20486;-85
2022/12/19 10:48:21;;;;;;;10.00;7.33;;;12.70;52.20;;;;;;5041426;28;20483;-85
2022/12/19 10:50:58;;;;;;;8.77;6.83;;;12.70;51.60;;;;;;5040818;28;20443;-84
2022/12/19 10:53:35;;;;;;;9.80;7.20;;;12.70;52.20;;;;;;5040468;28;20480;-86
2022/12/19 10:56:11;;;;;;;10.47;6.87;;;12.70;52.20;;;;;;5043368;28;20458;-84
2022/12/19 10:58:41;;;;;;;10.40;7.23;;;12.70;52.30;;;;;;5039355;28;20515;-81
2022/12/19 11:01:14;;;;;;;8.90;6.30;;;12.80;52.30;;;;;;5040791;28;20513;-83
2022/12/19 11:03:43;;;;;;;9.20;6.77;;;12.80;52.30;;;;;;5043254;28;20455;-85
2022/12/19 11:06:40;;;;;;;9.53;7.03;;;12.80;52.30;;;;;;5044654;28;20451;-84
2022/12/19 11:09:21;;;;;;;14.33;7.27;;;12.80;52.30;;;;;;5041110;28;20483;-82
2022/12/19 11:11:50;;;;;;;14.93;7.10;;;12.80;54.70;;;;;;5027968;28;20443;-84
2022/12/19 11:14:39;;;;;;;11.43;7.37;;;13.00;54.60;;;;;;5036417;28;20444;-86
2022/12/19 11:17:27;;;;;;;14.17;7.10;;;13.20;54.70;;;;;;5036038;28;20456;-83
2022/12/19 11:20:19;;;;;;;9.83;7.33;;;13.30;54.70;;;;;;5039933;28;20471;-86
2022/12/19 11:23:12;;;;;;;12.90;7.13;;;13.30;54.60;;;;;;5042097;28;20501;-85
2022/12/19 11:26:02;;;;;;;15.03;7.97;;;13.30;54.70;;;;;;5040820;28;20459;-84
2022/12/19 11:28:49;;;;;;;10.87;7.20;;;13.30;54.70;;;;;;5039348;28;20540;-84
2022/12/19 11:32:23;;;;;;;10.47;7.73;;;13.30;54.70;;;;;;5040549;28;20445;-84
2022/12/19 11:35:16;;;;;;;11.50;7.90;;;13.30;54.70;;;;;;5033409;28;20455;-85
2022/12/19 11:37:47;;;;;;;13.20;7.90;;;13.20;54.70;;;;;;5041348;28;20447;-85
2022/12/19 11:40:17;;;;;;;8.97;7.30;;;13.30;54.70;;;;;;5040402;28;20460;-86
2022/12/19 11:42:49;;;;;;;11.63;7.27;;;13.30;54.60;;;;;;5021440;28;20444;-84
2022/12/19 11:45:40;;;;;;;13.67;7.77;;;13.30;54.60;;;;;;5033192;28;20443;-87
2022/12/19 11:48:11;;;;;;;12.47;6.97;;;13.30;54.70;;;;;;5034116;28;20475;-87
2022/12/19 11:50:43;;;;;;;10.30;7.90;;;13.30;54.60;;;;;;5034704;28;20438;-87
2022/12/19 11:53:15;;;;;;;10.23;7.40;;;13.30;54.50;;;;;;5035013;28;20447;-87
2022/12/19 11:55:48;;;;;;;12.23;7.40;;;13.30;54.50;;;;;;5033959;28;20435;-87
2022/12/19 11:58:30;;;;;;;10.40;7.90;;;13.40;54.60;;;;;;5033304;28;20482;-86
2022/12/19 12:01:15;;;;;;;14.27;7.47;;;13.40;54.50;;;;;;5024526;28;20487;-87
2022/12/19 12:03:51;;;;;;;9.63;7.07;;;13.40;54.50;;;;;;5034239;28;20474;-86
2022/12/19 12:06:31;;;;;;;10.70;7.53;;;13.50;54.50;;;;;;5042801;28;20537;-86
2022/12/19 12:09:00;;;;;;;13.30;7.00;;;13.50;54.40;;;;;;5044273;28;20494;-86
2022/12/19 12:11:51;;;;;;;8.30;7.07;;;13.50;54.40;;;;;;5038653;28;20447;-87
2022/12/19 12:14:47;;;;;;;12.67;7.70;;;13.50;54.30;;;;;;5037766;28;20443;-87
2022/12/19 12:17:47;;;;;;;10.40;7.07;;;13.60;54.30;;;;;;5037332;28;20417;-86
2022/12/19 12:20:38;;;;;;;9.30;6.97;;;13.60;54.20;;;;;;5035333;28;20467;-86
2022/12/19 12:23:29;;;;;;;8.43;6.83;;;13.60;54.20;;;;;;5038503;28;20432;-86
2022/12/19 12:26:21;;;;;;;9.03;7.10;;;13.70;54.20;;;;;;5037394;28;20440;-86
2022/12/19 12:29:15;;;;;;;10.33;6.90;;;13.60;54.20;;;;;;5034638;28;21076;-85
2022/12/19 12:32:12;;;;;;;10.70;6.90;;;13.70;54.20;;;;;;5035489;28;20427;-87
2022/12/19 12:35:05;;;;;;;8.63;6.93;;;13.70;54.20;;;;;;5037558;28;20454;-82
2022/12/19 12:37:57;;;;;;;9.00;7.17;;;13.70;54.20;;;;;;5031888;28;20482;-86
2022/12/19 12:40:57;;;;;;;8.10;6.70;;;13.70;54.20;;;;;;5035120;28;20524;-84
2022/12/19 12:43:34;;;;;;;8.80;7.40;;;13.70;54.20;;;;;;5017230;28;20440;-85
2022/12/19 12:46:03;;;;;;;11.43;7.37;;;13.70;54.20;;;;;;5034312;28;20526;-84
2022/12/19 12:48:35;;;;;;;10.60;6.70;;;13.70;54.30;;;;;;5036219;28;20486;-82
2022/12/19 12:51:03;;;;;;;12.13;8.17;;;13.80;54.40;;;;;;5038537;28;20447;-85
2022/12/19 12:53:33;;;;;;;10.93;7.40;;;13.80;54.40;;;;;;5042961;28;20447;-85
2022/12/19 12:56:01;;;;;;;7.90;6.77;;;13.80;54.30;;;;;;5039847;28;20966;-83
2022/12/19 12:59:20;;;;;;;8.37;7.07;;;13.80;54.40;;;;;;5036423;28;20471;-85
2022/12/19 13:01:50;;;;;;;8.40;6.93;;;13.80;54.30;;;;;;5036333;28;20474;-84
2022/12/19 13:04:25;;;;;;;10.43;7.20;;;13.80;54.50;;;;;;5035232;28;20530;-85